sensor_id;sensor_type;location;lat;lon;timestamp;P1;durP1;ratioP1;P2;durP2;ratioP2
78288;SDS011;67539;48.752;12.922;2024-01-15T00:01:24;39.87;;;23.40;;
78288;SDS011;67539;48.752;12.922;2024-01-15T00:03:52;38.00;;;25.40;;
78288;SDS011;67539;48.752;12.922;2024-01-15T00:06:21;41.77;;;25.07;;
78288;SDS011;67539;48.752;12.922;2024-01-15T00:08:50;39.37;;;24.40;;
78288;SDS011;67539;48.752;12.922;2024-01-15T00:11:18;41.80;;;27.13;;
78288;SDS011;67539;48.752;12.922;2024-01-15T00:13:47;35.47;;;24.20;;
78288;SDS011;67539;48.752;12.922;2024-01-15T00:16:17;41.03;;;25.73;;
78288;SDS011;67539;48.752;12.922;2024-01-15T00:18:45;43.27;;;26.70;;
78288;SDS011;67539;48.752;12.922;2024-01-15T00:21:14;41.57;;;26.53;;
78288;SDS011;67539;48.752;12.922;2024-01-15T00:23:43;45.63;;;23.87;;
78288;SDS011;67539;48.752;12.922;2024-01-15T00:26:12;47.07;;;25.50;;
78288;SDS011;67539;48.752;12.922;2024-01-15T00:28:41;43.87;;;25.53;;
78288;SDS011;67539;48.752;12.922;2024-01-15T00:31:10;42.77;;;24.30;;
78288;SDS011;67539;48.752;12.922;2024-01-15T00:33:40;37.30;;;25.23;;
78288;SDS011;67539;48.752;12.922;2024-01-15T00:36:09;38.70;;;23.87;;
78288;SDS011;67539;48.752;12.922;2024-01-15T00:38:38;40.07;;;25.47;;
78288;SDS011;67539;48.752;12.922;2024-01-15T00:41:06;42.97;;;25.87;;
78288;SDS011;67539;48.752;12.922;2024-01-15T00:43:35;44.33;;;25.70;;
78288;SDS011;67539;48.752;12.922;2024-01-15T00:46:03;37.67;;;22.70;;
78288;SDS011;67539;48.752;12.922;2024-01-15T00:48:32;40.83;;;25.63;;
78288;SDS011;67539;48.752;12.922;2024-01-15T00:51:02;45.83;;;25.87;;
78288;SDS011;67539;48.752;12.922;2024-01-15T00:53:31;40.17;;;23.77;;
78288;SDS011;67539;48.752;12.922;2024-01-15T00:56:00;44.60;;;25.33;;
78288;SDS011;67539;48.752;12.922;2024-01-15T00:58:29;39.03;;;25.33;;
78288;SDS011;67539;48.752;12.922;2024-01-15T01:00:58;38.07;;;23.97;;
78288;SDS011;67539;48.752;12.922;2024-01-15T01:03:27;41.47;;;25.07;;
78288;SDS011;67539;48.752;12.922;2024-01-15T01:05:55;38.60;;;24.93;;
78288;SDS011;67539;48.752;12.922;2024-01-15T01:08:25;42.17;;;25.57;;
78288;SDS011;67539;48.752;12.922;2024-01-15T01:10:55;36.97;;;25.37;;
78288;SDS011;67539;48.752;12.922;2024-01-15T01:13:24;42.07;;;25.87;;
78288;SDS011;67539;48.752;12.922;2024-01-15T01:15:52;44.50;;;25.30;;
78288;SDS011;67539;48.752;12.922;2024-01-15T01:18:20;44.30;;;25.97;;
78288;SDS011;67539;48.752;12.922;2024-01-15T01:20:49;42.10;;;24.93;;
78288;SDS011;67539;48.752;12.922;2024-01-15T01:23:18;43.83;;;25.37;;
78288;SDS011;67539;48.752;12.922;2024-01-15T01:25:47;54.70;;;30.47;;
78288;SDS011;67539;48.752;12.922;2024-01-15T01:28:16;46.23;;;28.50;;
78288;SDS011;67539;48.752;12.922;2024-01-15T01:30:44;42.43;;;27.77;;
78288;SDS011;67539;48.752;12.922;2024-01-15T01:33:13;44.30;;;26.63;;
78288;SDS011;67539;48.752;12.922;2024-01-15T01:35:41;45.07;;;25.93;;
78288;SDS011;67539;48.752;12.922;2024-01-15T01:38:10;37.97;;;24.77;;
78288;SDS011;67539;48.752;12.922;2024-01-15T01:40:38;34.53;;;24.13;;
78288;SDS011;67539;48.752;12.922;2024-01-15T01:43:09;33.93;;;22.03;;
78288;SDS011;67539;48.752;12.922;2024-01-15T01:45:38;37.87;;;22.70;;
78288;SDS011;67539;48.752;12.922;2024-01-15T01:48:06;33.67;;;23.27;;
78288;SDS011;67539;48.752;12.922;2024-01-15T01:50:35;35.23;;;21.43;;
78288;SDS011;67539;48.752;12.922;2024-01-15T01:53:04;35.13;;;22.23;;
78288;SDS011;67539;48.752;12.922;2024-01-15T01:55:33;33.07;;;21.43;;
78288;SDS011;67539;48.752;12.922;2024-01-15T01:58:02;38.90;;;23.50;;
78288;SDS011;67539;48.752;12.922;2024-01-15T02:00:33;31.73;;;21.70;;
78288;SDS011;67539;48.752;12.922;2024-01-15T02:03:02;33.27;;;21.53;;
78288;SDS011;67539;48.752;12.922;2024-01-15T02:05:31;30.67;;;21.37;;
78288;SDS011;67539;48.752;12.922;2024-01-15T02:08:00;33.83;;;21.80;;
78288;SDS011;67539;48.752;12.922;2024-01-15T02:10:29;38.80;;;21.90;;
78288;SDS011;67539;48.752;12.922;2024-01-15T02:12:58;34.73;;;21.43;;
78288;SDS011;67539;48.752;12.922;2024-01-15T02:15:27;43.77;;;25.57;;
78288;SDS011;67539;48.752;12.922;2024-01-15T02:17:57;32.93;;;22.87;;
78288;SDS011;67539;48.752;12.922;2024-01-15T02:20:27;32.93;;;21.63;;
78288;SDS011;67539;48.752;12.922;2024-01-15T02:23:04;37.37;;;21.53;;
78288;SDS011;67539;48.752;12.922;2024-01-15T02:25:32;36.33;;;22.33;;
78288;SDS011;67539;48.752;12.922;2024-01-15T02:28:02;38.67;;;23.83;;
78288;SDS011;67539;48.752;12.922;2024-01-15T02:30:31;39.17;;;24.73;;
78288;SDS011;67539;48.752;12.922;2024-01-15T02:33:00;42.30;;;23.17;;
78288;SDS011;67539;48.752;12.922;2024-01-15T02:35:28;40.47;;;22.23;;
78288;SDS011;67539;48.752;12.922;2024-01-15T02:37:57;36.40;;;23.27;;
78288;SDS011;67539;48.752;12.922;2024-01-15T02:40:27;37.90;;;23.60;;
78288;SDS011;67539;48.752;12.922;2024-01-15T02:42:55;37.23;;;22.03;;
78288;SDS011;67539;48.752;12.922;2024-01-15T02:45:24;35.67;;;22.03;;
78288;SDS011;67539;48.752;12.922;2024-01-15T02:47:52;40.77;;;23.23;;
78288;SDS011;67539;48.752;12.922;2024-01-15T02:50:21;38.60;;;23.23;;
78288;SDS011;67539;48.752;12.922;2024-01-15T02:52:50;39.07;;;22.33;;
78288;SDS011;67539;48.752;12.922;2024-01-15T02:55:18;38.53;;;23.20;;
78288;SDS011;67539;48.752;12.922;2024-01-15T02:57:48;36.90;;;22.07;;
78288;SDS011;67539;48.752;12.922;2024-01-15T03:00:17;34.73;;;22.30;;
78288;SDS011;67539;48.752;12.922;2024-01-15T03:02:46;33.77;;;21.53;;
78288;SDS011;67539;48.752;12.922;2024-01-15T03:05:16;39.67;;;23.63;;
78288;SDS011;67539;48.752;12.922;2024-01-15T03:07:44;34.13;;;20.40;;
78288;SDS011;67539;48.752;12.922;2024-01-15T03:10:13;42.77;;;22.33;;
78288;SDS011;67539;48.752;12.922;2024-01-15T03:12:41;35.43;;;21.90;;
78288;SDS011;67539;48.752;12.922;2024-01-15T03:15:11;34.17;;;22.10;;
78288;SDS011;67539;48.752;12.922;2024-01-15T03:17:41;35.77;;;22.70;;
78288;SDS011;67539;48.752;12.922;2024-01-15T03:20:10;36.97;;;23.73;;
78288;SDS011;67539;48.752;12.922;2024-01-15T03:22:39;31.27;;;21.63;;
78288;SDS011;67539;48.752;12.922;2024-01-15T03:25:07;32.53;;;20.97;;
78288;SDS011;67539;48.752;12.922;2024-01-15T03:27:36;31.33;;;21.47;;
78288;SDS011;67539;48.752;12.922;2024-01-15T03:30:05;36.83;;;21.23;;
78288;SDS011;67539;48.752;12.922;2024-01-15T03:32:35;36.40;;;21.43;;
78288;SDS011;67539;48.752;12.922;2024-01-15T03:35:04;35.03;;;20.83;;
78288;SDS011;67539;48.752;12.922;2024-01-15T03:37:34;35.03;;;20.97;;
78288;SDS011;67539;48.752;12.922;2024-01-15T03:40:02;29.63;;;18.53;;
78288;SDS011;67539;48.752;12.922;2024-01-15T03:42:31;31.73;;;20.50;;
78288;SDS011;67539;48.752;12.922;2024-01-15T03:45:00;32.00;;;20.93;;
78288;SDS011;67539;48.752;12.922;2024-01-15T03:47:29;35.90;;;21.17;;
78288;SDS011;67539;48.752;12.922;2024-01-15T03:49:59;37.17;;;21.50;;
78288;SDS011;67539;48.752;12.922;2024-01-15T03:52:27;39.03;;;20.43;;
78288;SDS011;67539;48.752;12.922;2024-01-15T03:54:56;39.97;;;21.90;;
78288;SDS011;67539;48.752;12.922;2024-01-15T03:57:24;33.53;;;19.93;;
78288;SDS011;67539;48.752;12.922;2024-01-15T03:59:53;30.60;;;20.37;;
78288;SDS011;67539;48.752;12.922;2024-01-15T04:02:21;33.57;;;21.17;;
78288;SDS011;67539;48.752;12.922;2024-01-15T04:04:50;35.80;;;20.73;;
78288;SDS011;67539;48.752;12.922;2024-01-15T04:07:20;33.93;;;20.77;;
78288;SDS011;67539;48.752;12.922;2024-01-15T04:09:48;31.27;;;21.13;;
78288;SDS011;67539;48.752;12.922;2024-01-15T04:12:17;30.37;;;20.30;;
78288;SDS011;67539;48.752;12.922;2024-01-15T04:14:45;30.87;;;20.80;;
78288;SDS011;67539;48.752;12.922;2024-01-15T04:17:13;33.63;;;20.30;;
78288;SDS011;67539;48.752;12.922;2024-01-15T04:19:43;36.77;;;21.27;;
78288;SDS011;67539;48.752;12.922;2024-01-15T04:22:12;34.87;;;20.07;;
78288;SDS011;67539;48.752;12.922;2024-01-15T04:24:41;37.17;;;22.03;;
78288;SDS011;67539;48.752;12.922;2024-01-15T04:27:10;33.83;;;20.87;;
78288;SDS011;67539;48.752;12.922;2024-01-15T04:29:38;35.77;;;20.50;;
78288;SDS011;67539;48.752;12.922;2024-01-15T04:32:07;35.90;;;20.73;;
78288;SDS011;67539;48.752;12.922;2024-01-15T04:34:36;33.30;;;20.53;;
78288;SDS011;67539;48.752;12.922;2024-01-15T04:37:04;29.70;;;19.47;;
78288;SDS011;67539;48.752;12.922;2024-01-15T04:39:33;29.67;;;20.13;;
78288;SDS011;67539;48.752;12.922;2024-01-15T04:42:03;33.40;;;19.67;;
78288;SDS011;67539;48.752;12.922;2024-01-15T04:44:32;29.47;;;18.87;;
78288;SDS011;67539;48.752;12.922;2024-01-15T04:47:00;30.63;;;19.27;;
78288;SDS011;67539;48.752;12.922;2024-01-15T04:49:28;34.83;;;20.17;;
78288;SDS011;67539;48.752;12.922;2024-01-15T04:51:57;37.07;;;20.30;;
78288;SDS011;67539;48.752;12.922;2024-01-15T04:54:26;28.93;;;19.17;;
78288;SDS011;67539;48.752;12.922;2024-01-15T04:56:54;28.50;;;18.33;;
78288;SDS011;67539;48.752;12.922;2024-01-15T04:59:24;27.80;;;17.93;;
78288;SDS011;67539;48.752;12.922;2024-01-15T05:01:52;25.10;;;16.57;;
78288;SDS011;67539;48.752;12.922;2024-01-15T05:04:21;32.83;;;19.87;;
78288;SDS011;67539;48.752;12.922;2024-01-15T05:06:51;30.70;;;19.13;;
78288;SDS011;67539;48.752;12.922;2024-01-15T05:09:19;31.93;;;17.97;;
78288;SDS011;67539;48.752;12.922;2024-01-15T05:11:48;33.00;;;19.70;;
78288;SDS011;67539;48.752;12.922;2024-01-15T05:14:16;29.77;;;19.20;;
78288;SDS011;67539;48.752;12.922;2024-01-15T05:16:48;26.97;;;18.57;;
78288;SDS011;67539;48.752;12.922;2024-01-15T05:19:17;28.97;;;18.00;;
78288;SDS011;67539;48.752;12.922;2024-01-15T05:21:46;27.50;;;17.67;;
78288;SDS011;67539;48.752;12.922;2024-01-15T05:24:14;29.07;;;18.23;;
78288;SDS011;67539;48.752;12.922;2024-01-15T05:26:43;25.50;;;17.57;;
78288;SDS011;67539;48.752;12.922;2024-01-15T05:29:11;27.97;;;17.53;;
78288;SDS011;67539;48.752;12.922;2024-01-15T05:31:40;27.47;;;17.73;;
78288;SDS011;67539;48.752;12.922;2024-01-15T05:34:10;30.63;;;18.60;;
78288;SDS011;67539;48.752;12.922;2024-01-15T05:36:37;29.13;;;18.50;;
78288;SDS011;67539;48.752;12.922;2024-01-15T05:39:06;25.03;;;16.77;;
78288;SDS011;67539;48.752;12.922;2024-01-15T05:41:34;30.30;;;17.03;;
78288;SDS011;67539;48.752;12.922;2024-01-15T05:44:03;29.90;;;17.93;;
78288;SDS011;67539;48.752;12.922;2024-01-15T05:46:31;26.57;;;17.73;;
78288;SDS011;67539;48.752;12.922;2024-01-15T05:49:00;26.33;;;16.63;;
78288;SDS011;67539;48.752;12.922;2024-01-15T05:51:29;26.20;;;17.87;;
78288;SDS011;67539;48.752;12.922;2024-01-15T05:53:58;29.80;;;17.70;;
78288;SDS011;67539;48.752;12.922;2024-01-15T05:56:26;28.80;;;17.33;;
78288;SDS011;67539;48.752;12.922;2024-01-15T05:58:55;26.20;;;17.13;;
78288;SDS011;67539;48.752;12.922;2024-01-15T06:01:23;28.37;;;18.33;;
78288;SDS011;67539;48.752;12.922;2024-01-15T06:03:52;32.77;;;19.00;;
78288;SDS011;67539;48.752;12.922;2024-01-15T06:06:20;29.73;;;17.07;;
78288;SDS011;67539;48.752;12.922;2024-01-15T06:08:50;29.47;;;18.20;;
78288;SDS011;67539;48.752;12.922;2024-01-15T06:11:19;25.53;;;16.80;;
78288;SDS011;67539;48.752;12.922;2024-01-15T06:13:47;28.93;;;17.77;;
78288;SDS011;67539;48.752;12.922;2024-01-15T06:16:15;27.10;;;17.43;;
78288;SDS011;67539;48.752;12.922;2024-01-15T06:18:45;28.90;;;17.00;;
78288;SDS011;67539;48.752;12.922;2024-01-15T06:21:14;25.23;;;17.33;;
78288;SDS011;67539;48.752;12.922;2024-01-15T06:23:42;27.47;;;17.53;;
78288;SDS011;67539;48.752;12.922;2024-01-15T06:26:12;29.30;;;16.97;;
78288;SDS011;67539;48.752;12.922;2024-01-15T06:28:41;28.53;;;16.43;;
78288;SDS011;67539;48.752;12.922;2024-01-15T06:31:09;32.37;;;20.23;;
78288;SDS011;67539;48.752;12.922;2024-01-15T06:33:38;32.67;;;21.83;;
78288;SDS011;67539;48.752;12.922;2024-01-15T06:36:07;28.00;;;17.43;;
78288;SDS011;67539;48.752;12.922;2024-01-15T06:38:35;28.13;;;18.60;;
78288;SDS011;67539;48.752;12.922;2024-01-15T06:41:04;25.43;;;16.40;;
78288;SDS011;67539;48.752;12.922;2024-01-15T06:43:33;25.60;;;16.33;;
78288;SDS011;67539;48.752;12.922;2024-01-15T06:46:02;28.13;;;17.57;;
78288;SDS011;67539;48.752;12.922;2024-01-15T06:48:34;28.57;;;18.43;;
78288;SDS011;67539;48.752;12.922;2024-01-15T06:51:03;34.23;;;25.10;;
78288;SDS011;67539;48.752;12.922;2024-01-15T06:53:32;23.90;;;17.13;;
78288;SDS011;67539;48.752;12.922;2024-01-15T06:56:00;27.33;;;16.90;;
78288;SDS011;67539;48.752;12.922;2024-01-15T06:58:30;38.63;;;28.13;;
78288;SDS011;67539;48.752;12.922;2024-01-15T07:01:00;23.40;;;15.40;;
78288;SDS011;67539;48.752;12.922;2024-01-15T07:03:29;28.27;;;18.77;;
78288;SDS011;67539;48.752;12.922;2024-01-15T07:05:57;28.63;;;22.30;;
78288;SDS011;67539;48.752;12.922;2024-01-15T07:08:26;34.20;;;24.77;;
78288;SDS011;67539;48.752;12.922;2024-01-15T07:10:54;26.57;;;16.90;;
78288;SDS011;67539;48.752;12.922;2024-01-15T07:13:23;29.27;;;17.53;;
78288;SDS011;67539;48.752;12.922;2024-01-15T07:15:51;27.67;;;19.10;;
78288;SDS011;67539;48.752;12.922;2024-01-15T14:19:35;4.80;;;3.03;;
78288;SDS011;67539;48.752;12.922;2024-01-15T14:22:04;5.07;;;3.37;;
78288;SDS011;67539;48.752;12.922;2024-01-15T14:24:32;5.40;;;3.80;;
78288;SDS011;67539;48.752;12.922;2024-01-15T14:27:01;6.60;;;3.37;;
78288;SDS011;67539;48.752;12.922;2024-01-15T14:29:31;5.57;;;3.43;;
78288;SDS011;67539;48.752;12.922;2024-01-15T14:31:59;5.67;;;3.40;;
78288;SDS011;67539;48.752;12.922;2024-01-15T14:34:28;6.13;;;3.60;;
78288;SDS011;67539;48.752;12.922;2024-01-15T14:36:57;7.33;;;3.67;;
78288;SDS011;67539;48.752;12.922;2024-01-15T14:39:26;6.00;;;3.67;;
78288;SDS011;67539;48.752;12.922;2024-01-15T14:41:54;4.77;;;4.10;;
78288;SDS011;67539;48.752;12.922;2024-01-15T14:44:23;5.13;;;2.70;;
78288;SDS011;67539;48.752;12.922;2024-01-15T14:46:51;4.80;;;3.20;;
78288;SDS011;67539;48.752;12.922;2024-01-15T14:49:19;9.97;;;4.20;;
78288;SDS011;67539;48.752;12.922;2024-01-15T14:51:48;8.43;;;4.20;;
78288;SDS011;67539;48.752;12.922;2024-01-15T14:54:17;5.57;;;3.60;;
78288;SDS011;67539;48.752;12.922;2024-01-15T14:56:50;8.73;;;4.77;;
78288;SDS011;67539;48.752;12.922;2024-01-15T14:59:18;7.43;;;4.57;;
78288;SDS011;67539;48.752;12.922;2024-01-15T15:01:46;6.37;;;4.37;;
78288;SDS011;67539;48.752;12.922;2024-01-15T15:04:15;6.83;;;4.40;;
78288;SDS011;67539;48.752;12.922;2024-01-15T15:06:43;7.13;;;4.73;;
78288;SDS011;67539;48.752;12.922;2024-01-15T15:09:11;8.13;;;5.03;;
78288;SDS011;67539;48.752;12.922;2024-01-15T15:11:41;7.73;;;5.53;;
78288;SDS011;67539;48.752;12.922;2024-01-15T15:14:09;7.77;;;5.27;;
78288;SDS011;67539;48.752;12.922;2024-01-15T15:16:37;8.33;;;5.13;;
78288;SDS011;67539;48.752;12.922;2024-01-15T15:19:06;8.20;;;5.17;;
78288;SDS011;67539;48.752;12.922;2024-01-15T15:21:34;9.37;;;5.47;;
78288;SDS011;67539;48.752;12.922;2024-01-15T15:24:03;7.10;;;5.33;;
78288;SDS011;67539;48.752;12.922;2024-01-15T15:26:31;9.23;;;5.97;;
78288;SDS011;67539;48.752;12.922;2024-01-15T15:29:00;9.37;;;6.37;;
78288;SDS011;67539;48.752;12.922;2024-01-15T15:31:29;8.17;;;5.87;;
78288;SDS011;67539;48.752;12.922;2024-01-15T15:33:57;10.57;;;5.97;;
78288;SDS011;67539;48.752;12.922;2024-01-15T15:36:25;10.13;;;6.17;;
78288;SDS011;67539;48.752;12.922;2024-01-15T15:38:54;7.57;;;4.70;;
78288;SDS011;67539;48.752;12.922;2024-01-15T15:41:23;7.87;;;5.00;;
78288;SDS011;67539;48.752;12.922;2024-01-15T15:43:54;8.50;;;5.73;;
78288;SDS011;67539;48.752;12.922;2024-01-15T15:46:24;7.23;;;5.43;;
78288;SDS011;67539;48.752;12.922;2024-01-15T15:48:52;8.87;;;6.57;;
78288;SDS011;67539;48.752;12.922;2024-01-15T15:51:21;8.97;;;5.37;;
78288;SDS011;67539;48.752;12.922;2024-01-15T15:53:49;9.93;;;6.43;;
78288;SDS011;67539;48.752;12.922;2024-01-15T15:56:18;10.87;;;6.60;;
78288;SDS011;67539;48.752;12.922;2024-01-15T15:58:46;8.73;;;5.90;;
78288;SDS011;67539;48.752;12.922;2024-01-15T16:01:14;9.83;;;6.23;;
78288;SDS011;67539;48.752;12.922;2024-01-15T16:03:44;9.93;;;6.07;;
78288;SDS011;67539;48.752;12.922;2024-01-15T16:06:13;10.17;;;6.53;;
78288;SDS011;67539;48.752;12.922;2024-01-15T16:08:41;8.40;;;6.43;;
78288;SDS011;67539;48.752;12.922;2024-01-15T16:11:10;10.57;;;6.00;;
78288;SDS011;67539;48.752;12.922;2024-01-15T16:13:39;11.57;;;7.27;;
78288;SDS011;67539;48.752;12.922;2024-01-15T16:16:07;8.63;;;6.00;;
78288;SDS011;67539;48.752;12.922;2024-01-15T16:18:57;9.20;;;5.67;;
78288;SDS011;67539;48.752;12.922;2024-01-15T16:21:45;8.93;;;5.37;;
78288;SDS011;67539;48.752;12.922;2024-01-15T16:24:33;10.53;;;6.33;;
78288;SDS011;67539;48.752;12.922;2024-01-15T16:27:16;10.53;;;6.00;;
78288;SDS011;67539;48.752;12.922;2024-01-15T16:29:44;10.07;;;7.17;;
78288;SDS011;67539;48.752;12.922;2024-01-15T16:32:13;9.30;;;6.37;;
78288;SDS011;67539;48.752;12.922;2024-01-15T16:34:42;8.97;;;5.53;;
78288;SDS011;67539;48.752;12.922;2024-01-15T16:37:10;9.80;;;6.83;;
78288;SDS011;67539;48.752;12.922;2024-01-15T16:39:39;13.57;;;7.40;;
78288;SDS011;67539;48.752;12.922;2024-01-15T16:42:07;10.33;;;6.90;;
78288;SDS011;67539;48.752;12.922;2024-01-15T16:44:36;11.50;;;7.53;;
78288;SDS011;67539;48.752;12.922;2024-01-15T16:47:04;12.97;;;7.27;;
78288;SDS011;67539;48.752;12.922;2024-01-15T16:49:34;12.43;;;8.13;;
78288;SDS011;67539;48.752;12.922;2024-01-15T16:52:04;10.03;;;7.07;;
78288;SDS011;67539;48.752;12.922;2024-01-15T16:54:34;11.33;;;7.83;;
78288;SDS011;67539;48.752;12.922;2024-01-15T16:57:02;11.37;;;7.27;;
78288;SDS011;67539;48.752;12.922;2024-01-15T16:59:30;12.20;;;7.57;;
78288;SDS011;67539;48.752;12.922;2024-01-15T17:01:59;12.77;;;8.00;;
78288;SDS011;67539;48.752;12.922;2024-01-15T17:04:27;13.70;;;8.43;;
78288;SDS011;67539;48.752;12.922;2024-01-15T17:06:55;10.77;;;7.97;;
78288;SDS011;67539;48.752;12.922;2024-01-15T17:09:25;11.87;;;8.47;;
78288;SDS011;67539;48.752;12.922;2024-01-15T17:11:54;11.37;;;8.60;;
78288;SDS011;67539;48.752;12.922;2024-01-15T17:14:22;9.57;;;7.63;;
78288;SDS011;67539;48.752;12.922;2024-01-15T17:16:50;12.90;;;8.27;;
78288;SDS011;67539;48.752;12.922;2024-01-15T17:19:18;11.33;;;8.17;;
78288;SDS011;67539;48.752;12.922;2024-01-15T17:21:47;8.80;;;6.57;;
78288;SDS011;67539;48.752;12.922;2024-01-15T17:24:15;11.10;;;7.63;;
78288;SDS011;67539;48.752;12.922;2024-01-15T17:26:44;8.97;;;7.10;;
78288;SDS011;67539;48.752;12.922;2024-01-15T17:29:12;10.83;;;7.53;;
78288;SDS011;67539;48.752;12.922;2024-01-15T17:31:41;9.90;;;7.37;;
78288;SDS011;67539;48.752;12.922;2024-01-15T17:34:09;10.17;;;7.67;;
78288;SDS011;67539;48.752;12.922;2024-01-15T17:36:37;9.77;;;6.83;;
78288;SDS011;67539;48.752;12.922;2024-01-15T17:39:06;11.60;;;7.67;;
78288;SDS011;67539;48.752;12.922;2024-01-15T17:41:36;12.50;;;7.40;;
78288;SDS011;67539;48.752;12.922;2024-01-15T17:44:05;9.20;;;6.67;;
78288;SDS011;67539;48.752;12.922;2024-01-15T17:46:34;8.93;;;6.00;;
78288;SDS011;67539;48.752;12.922;2024-01-15T17:49:02;9.63;;;6.23;;
78288;SDS011;67539;48.752;12.922;2024-01-15T17:51:30;7.23;;;5.30;;
78288;SDS011;67539;48.752;12.922;2024-01-15T17:53:59;7.90;;;5.90;;
78288;SDS011;67539;48.752;12.922;2024-01-15T17:56:27;8.60;;;5.30;;
78288;SDS011;67539;48.752;12.922;2024-01-15T17:58:56;7.97;;;6.07;;
78288;SDS011;67539;48.752;12.922;2024-01-15T18:01:25;6.07;;;4.90;;
78288;SDS011;67539;48.752;12.922;2024-01-15T18:03:54;6.13;;;5.13;;
78288;SDS011;67539;48.752;12.922;2024-01-15T18:06:24;7.30;;;5.20;;
78288;SDS011;67539;48.752;12.922;2024-01-15T18:08:52;7.43;;;5.57;;
78288;SDS011;67539;48.752;12.922;2024-01-15T18:11:20;6.97;;;5.70;;
78288;SDS011;67539;48.752;12.922;2024-01-15T18:13:49;7.47;;;5.13;;
78288;SDS011;67539;48.752;12.922;2024-01-15T18:16:17;5.30;;;4.80;;
78288;SDS011;67539;48.752;12.922;2024-01-15T18:18:51;6.40;;;5.10;;
78288;SDS011;67539;48.752;12.922;2024-01-15T18:21:19;8.93;;;5.80;;
78288;SDS011;67539;48.752;12.922;2024-01-15T18:23:48;7.30;;;5.13;;
78288;SDS011;67539;48.752;12.922;2024-01-15T18:26:17;7.63;;;5.77;;
78288;SDS011;67539;48.752;12.922;2024-01-15T18:28:45;8.43;;;5.47;;
78288;SDS011;67539;48.752;12.922;2024-01-15T18:31:13;7.37;;;5.67;;
78288;SDS011;67539;48.752;12.922;2024-01-15T18:33:41;7.33;;;5.83;;
78288;SDS011;67539;48.752;12.922;2024-01-15T18:36:11;10.50;;;6.50;;
78288;SDS011;67539;48.752;12.922;2024-01-15T18:38:39;7.40;;;6.10;;
78288;SDS011;67539;48.752;12.922;2024-01-15T18:41:08;9.70;;;6.57;;
78288;SDS011;67539;48.752;12.922;2024-01-15T18:43:36;8.37;;;6.40;;
78288;SDS011;67539;48.752;12.922;2024-01-15T18:46:04;6.23;;;5.27;;
78288;SDS011;67539;48.752;12.922;2024-01-15T18:48:34;10.33;;;6.70;;
78288;SDS011;67539;48.752;12.922;2024-01-15T18:51:02;7.80;;;5.67;;
78288;SDS011;67539;48.752;12.922;2024-01-15T18:53:32;7.03;;;6.10;;
78288;SDS011;67539;48.752;12.922;2024-01-15T18:56:01;5.83;;;5.23;;
78288;SDS011;67539;48.752;12.922;2024-01-15T18:58:29;7.73;;;5.80;;
78288;SDS011;67539;48.752;12.922;2024-01-15T19:00:57;8.10;;;5.97;;
78288;SDS011;67539;48.752;12.922;2024-01-15T19:03:26;6.93;;;5.93;;
78288;SDS011;67539;48.752;12.922;2024-01-15T19:05:54;6.83;;;5.93;;
78288;SDS011;67539;48.752;12.922;2024-01-15T19:08:22;7.87;;;6.20;;
78288;SDS011;67539;48.752;12.922;2024-01-15T19:10:52;8.20;;;5.93;;
78288;SDS011;67539;48.752;12.922;2024-01-15T19:13:21;8.73;;;5.87;;
78288;SDS011;67539;48.752;12.922;2024-01-15T19:15:49;8.03;;;6.20;;
78288;SDS011;67539;48.752;12.922;2024-01-15T19:18:17;7.17;;;5.77;;
78288;SDS011;67539;48.752;12.922;2024-01-15T19:20:46;9.23;;;6.87;;
78288;SDS011;67539;48.752;12.922;2024-01-15T19:23:14;7.47;;;6.10;;
78288;SDS011;67539;48.752;12.922;2024-01-15T19:25:43;7.43;;;5.60;;
78288;SDS011;67539;48.752;12.922;2024-01-15T19:28:15;9.03;;;6.57;;
78288;SDS011;67539;48.752;12.922;2024-01-15T19:30:43;6.60;;;5.80;;
78288;SDS011;67539;48.752;12.922;2024-01-15T19:33:11;7.93;;;5.80;;
78288;SDS011;67539;48.752;12.922;2024-01-15T19:35:39;7.47;;;6.13;;
78288;SDS011;67539;48.752;12.922;2024-01-15T19:38:08;6.43;;;5.77;;
78288;SDS011;67539;48.752;12.922;2024-01-15T19:40:36;9.47;;;6.07;;
78288;SDS011;67539;48.752;12.922;2024-01-15T19:43:05;8.70;;;6.33;;
78288;SDS011;67539;48.752;12.922;2024-01-15T19:45:34;8.03;;;5.90;;
78288;SDS011;67539;48.752;12.922;2024-01-15T19:48:03;9.13;;;6.40;;
78288;SDS011;67539;48.752;12.922;2024-01-15T19:50:31;7.43;;;6.23;;
78288;SDS011;67539;48.752;12.922;2024-01-15T19:52:59;6.97;;;5.90;;
78288;SDS011;67539;48.752;12.922;2024-01-15T19:55:28;8.27;;;5.40;;
78288;SDS011;67539;48.752;12.922;2024-01-15T19:57:56;10.70;;;8.03;;
78288;SDS011;67539;48.752;12.922;2024-01-15T20:00:24;7.63;;;5.40;;
78288;SDS011;67539;48.752;12.922;2024-01-15T20:02:53;6.87;;;5.53;;
78288;SDS011;67539;48.752;12.922;2024-01-15T20:05:21;9.37;;;6.90;;
78288;SDS011;67539;48.752;12.922;2024-01-15T20:07:50;7.73;;;6.30;;
78288;SDS011;67539;48.752;12.922;2024-01-15T20:10:18;8.67;;;5.70;;
78288;SDS011;67539;48.752;12.922;2024-01-15T20:12:46;10.10;;;6.53;;
78288;SDS011;67539;48.752;12.922;2024-01-15T20:15:14;8.37;;;6.20;;
78288;SDS011;67539;48.752;12.922;2024-01-15T20:17:44;10.07;;;6.47;;
78288;SDS011;67539;48.752;12.922;2024-01-15T20:20:14;8.47;;;5.87;;
78288;SDS011;67539;48.752;12.922;2024-01-15T20:22:42;7.20;;;5.33;;
78288;SDS011;67539;48.752;12.922;2024-01-15T20:25:11;7.13;;;5.33;;
78288;SDS011;67539;48.752;12.922;2024-01-15T20:27:39;9.37;;;5.80;;
78288;SDS011;67539;48.752;12.922;2024-01-15T20:30:07;6.37;;;5.67;;
78288;SDS011;67539;48.752;12.922;2024-01-15T20:32:36;9.93;;;6.53;;
78288;SDS011;67539;48.752;12.922;2024-01-15T20:35:05;10.27;;;6.70;;
78288;SDS011;67539;48.752;12.922;2024-01-15T20:37:35;9.23;;;6.47;;
78288;SDS011;67539;48.752;12.922;2024-01-15T20:40:03;8.10;;;6.30;;
78288;SDS011;67539;48.752;12.922;2024-01-15T20:42:32;8.00;;;7.20;;
78288;SDS011;67539;48.752;12.922;2024-01-15T20:45:00;8.40;;;6.17;;
78288;SDS011;67539;48.752;12.922;2024-01-15T20:47:29;8.07;;;6.33;;
78288;SDS011;67539;48.752;12.922;2024-01-15T20:49:58;9.53;;;6.23;;
78288;SDS011;67539;48.752;12.922;2024-01-15T20:52:26;11.57;;;7.70;;
78288;SDS011;67539;48.752;12.922;2024-01-15T20:54:56;8.37;;;7.20;;
78288;SDS011;67539;48.752;12.922;2024-01-15T20:57:24;9.27;;;5.77;;
78288;SDS011;67539;48.752;12.922;2024-01-15T20:59:52;9.10;;;6.53;;
78288;SDS011;67539;48.752;12.922;2024-01-15T21:02:21;9.57;;;6.50;;
78288;SDS011;67539;48.752;12.922;2024-01-15T21:04:49;8.80;;;6.20;;
78288;SDS011;67539;48.752;12.922;2024-01-15T21:07:17;8.60;;;6.40;;
78288;SDS011;67539;48.752;12.922;2024-01-15T21:09:45;9.07;;;6.57;;
78288;SDS011;67539;48.752;12.922;2024-01-15T21:12:15;9.77;;;6.33;;
78288;SDS011;67539;48.752;12.922;2024-01-15T21:14:43;10.00;;;6.27;;
78288;SDS011;67539;48.752;12.922;2024-01-15T21:17:12;7.80;;;6.40;;
78288;SDS011;67539;48.752;12.922;2024-01-15T21:19:41;8.40;;;6.33;;
78288;SDS011;67539;48.752;12.922;2024-01-15T21:22:09;11.20;;;6.53;;
78288;SDS011;67539;48.752;12.922;2024-01-15T21:24:37;8.37;;;6.07;;
78288;SDS011;67539;48.752;12.922;2024-01-15T21:27:06;7.90;;;6.03;;
78288;SDS011;67539;48.752;12.922;2024-01-15T21:29:35;8.67;;;5.90;;
78288;SDS011;67539;48.752;12.922;2024-01-15T21:32:04;6.93;;;5.20;;